createdAt,value
2022-07-27T00:01:54.306Z,1.38
2022-07-27T00:08:56.562Z,1.30
2022-07-27T00:15:58.928Z,1.30
2022-07-27T00:23:02.563Z,1.15
2022-07-27T00:30:05.807Z,1.33
2022-07-27T00:37:08.067Z,1.23
2022-07-27T00:44:12.370Z,1.40
2022-07-27T00:51:14.696Z,1.70
2022-07-27T00:58:16.922Z,1.23
2022-07-27T01:05:20.685Z,1.73
2022-07-27T01:12:23.157Z,1.40
2022-07-27T01:19:25.387Z,1.15
2022-07-27T01:26:28.926Z,1.55
2022-07-27T01:33:31.203Z,1.30
2022-07-27T01:40:34.123Z,1.45
2022-07-27T01:47:37.710Z,1.48
2022-07-27T01:54:40.190Z,1.88
2022-07-27T02:01:42.506Z,1.70
2022-07-27T02:08:46.114Z,2.10
2022-07-27T02:15:48.366Z,1.83
2022-07-27T02:22:51.850Z,1.50
2022-07-27T02:29:55.439Z,1.90
2022-07-27T02:36:57.664Z,1.88
2022-07-27T02:43:59.896Z,2.00
2022-07-27T02:51:03.665Z,1.80
2022-07-27T02:58:05.905Z,1.55
2022-07-27T03:05:08.868Z,2.10
2022-07-27T03:12:12.422Z,2.00
2022-07-27T03:19:14.849Z,2.00
2022-07-27T03:26:19.122Z,1.75
2022-07-27T03:33:22.848Z,1.83
2022-07-27T03:40:25.066Z,1.90
2022-07-27T03:47:27.418Z,1.65
2022-07-27T03:54:31.013Z,1.90
2022-07-27T04:01:35.458Z,2.10
2022-07-27T04:08:37.922Z,2.70
2022-07-27T04:15:43.309Z,3.00
2022-07-27T04:22:49.408Z,3.10
2022-07-27T04:29:51.676Z,3.30
2022-07-27T04:36:57.532Z,2.55
2022-07-27T04:44:00.208Z,2.88
2022-07-27T04:51:03.410Z,2.83
2022-07-27T04:58:07.446Z,2.58
2022-07-27T05:05:09.925Z,3.22
2022-07-27T05:12:12.180Z,3.50
2022-07-27T05:19:16.063Z,3.78
2022-07-27T05:26:18.463Z,4.57
2022-07-27T05:33:20.833Z,4.47
2022-07-27T05:40:24.684Z,4.80
2022-07-27T05:47:26.907Z,5.30
2022-07-27T05:54:29.134Z,4.60
2022-07-27T06:01:34.820Z,4.80
2022-07-27T06:08:37.104Z,5.35
2022-07-27T06:15:40.372Z,5.72
2022-07-27T06:22:47.598Z,5.60
2022-07-27T06:29:49.813Z,4.80
2022-07-27T06:36:52.950Z,4.80
2022-07-27T06:43:56.518Z,4.88
2022-07-27T06:50:59.502Z,4.63
2022-07-27T06:58:04.401Z,4.72
2022-07-27T07:05:10.170Z,4.95
2022-07-27T07:12:13.107Z,6.13
2022-07-27T07:19:16.135Z,6.05
2022-07-27T07:26:19.774Z,5.22
2022-07-27T07:33:22.059Z,5.75
2022-07-27T07:40:42.704Z,5.47
2022-07-27T07:47:48.097Z,5.10
2022-07-27T07:54:50.303Z,4.60
2022-07-27T08:01:52.570Z,4.40
2022-07-27T08:08:57.701Z,3.80
2022-07-27T08:16:01.084Z,3.63
2022-07-27T08:23:05.028Z,4.13
2022-07-27T08:30:10.431Z,3.90
2022-07-27T08:37:15.692Z,3.67
2022-07-27T08:44:19.631Z,4.05
2022-07-27T08:51:25.340Z,4.07
2022-07-27T08:58:27.571Z,4.15
2022-07-27T09:05:36.950Z,3.67
2022-07-27T09:12:41.851Z,3.65
2022-07-27T09:19:52.914Z,4.55
2022-07-27T09:27:02.208Z,4.70
2022-07-27T09:34:05.778Z,4.43
2022-07-27T09:41:09.265Z,3.60
2022-07-27T09:48:16.914Z,3.55
2022-07-27T09:55:21.703Z,4.32
2022-07-27T10:02:24.466Z,3.85
2022-07-27T10:09:26.825Z,3.72
2022-07-27T10:16:33.937Z,3.80
2022-07-27T10:23:38.314Z,3.42
2022-07-27T10:30:42.977Z,2.75
2022-07-27T10:37:55.534Z,2.50
2022-07-27T10:45:00.135Z,3.17
2022-07-27T10:52:02.543Z,2.75
2022-07-27T10:59:06.144Z,2.80
2022-07-27T11:06:31.844Z,2.50
2022-07-27T11:13:38.666Z,2.80
2022-07-27T11:20:43.292Z,2.22
2022-07-27T11:27:47.902Z,2.30
2022-07-27T11:34:50.874Z,2.78
2022-07-27T11:42:11.522Z,2.60
2022-07-27T11:49:15.969Z,2.47
2022-07-27T11:56:23.062Z,2.10
2022-07-27T12:03:45.827Z,2.10
2022-07-27T12:10:58.284Z,1.83
2022-07-27T12:18:00.600Z,1.95
2022-07-27T12:25:16.019Z,1.88
2022-07-27T12:32:20.697Z,1.95
2022-07-27T12:39:26.683Z,1.80
2022-07-27T12:46:30.746Z,1.80
2022-07-27T12:53:33.670Z,1.83
2022-07-27T13:00:36.227Z,1.60
2022-07-27T13:07:40.393Z,1.60
2022-07-27T13:14:43.405Z,1.65
2022-07-27T13:21:45.840Z,1.77
2022-07-27T13:28:50.144Z,1.63
2022-07-27T13:36:00.359Z,2.08
2022-07-27T13:43:11.968Z,1.95
2022-07-27T13:50:19.418Z,1.70
2022-07-27T13:57:24.239Z,1.75
2022-07-27T14:04:26.450Z,1.90
2022-07-27T14:11:29.981Z,1.40
2022-07-27T14:18:34.389Z,1.83
2022-07-27T14:25:36.625Z,1.80
2022-07-27T14:32:40.413Z,1.58
2022-07-27T14:39:42.689Z,1.58
2022-07-27T14:46:45.050Z,1.58
2022-07-27T14:53:48.727Z,1.25
2022-07-27T15:00:52.560Z,1.48
2022-07-27T15:07:54.957Z,2.50
2022-07-27T15:15:00.635Z,1.70
2022-07-27T15:22:02.870Z,1.38
2022-07-27T15:29:05.115Z,1.60
2022-07-27T15:36:08.890Z,1.67
2022-07-27T15:43:12.061Z,1.42
2022-07-27T15:50:18.439Z,1.23
2022-07-27T15:57:22.014Z,1.48
2022-07-27T16:04:24.251Z,1.20
2022-07-27T16:11:26.560Z,1.30
2022-07-27T16:18:32.929Z,1.20
2022-07-27T16:26:01.287Z,1.30
2022-07-27T16:33:02.206Z,1.20
2022-07-27T16:40:06.736Z,1.60
2022-07-27T16:47:09.679Z,1.20
2022-07-27T16:54:14.066Z,1.23
2022-07-27T17:01:22.594Z,1.52
2022-07-27T17:08:29.276Z,1.10
2022-07-27T17:15:33.589Z,1.17
2022-07-27T17:22:38.365Z,1.30
2022-07-27T17:29:42.987Z,1.50
2022-07-27T17:36:45.219Z,1.50
2022-07-27T17:43:48.813Z,1.50
2022-07-27T17:50:51.126Z,1.30
2022-07-27T17:57:53.460Z,1.38
2022-07-27T18:04:59.303Z,1.40
2022-07-27T18:12:01.549Z,1.27
2022-07-27T18:19:06.197Z,1.40
2022-07-27T18:26:12.043Z,1.63
2022-07-27T18:33:14.525Z,1.50
2022-07-27T18:40:16.767Z,1.40
2022-07-27T18:47:20.426Z,1.40
2022-07-27T18:54:22.969Z,1.52
2022-07-27T19:01:25.230Z,1.75
2022-07-27T19:08:28.859Z,1.60
2022-07-27T19:15:32.719Z,1.63
2022-07-27T19:22:35.004Z,1.38
2022-07-27T19:29:40.922Z,1.38
2022-07-27T19:36:45.541Z,1.70
2022-07-27T19:43:47.851Z,1.30
2022-07-27T19:50:51.442Z,1.30
2022-07-27T19:57:53.932Z,1.38
2022-07-27T20:04:58.582Z,1.20
2022-07-27T20:12:04.568Z,1.48
2022-07-27T20:19:06.913Z,1.30
2022-07-27T20:26:09.739Z,1.30
2022-07-27T20:33:14.965Z,1.52
2022-07-27T20:40:18.337Z,1.65
2022-07-27T20:47:20.550Z,1.30
2022-07-27T20:54:29.101Z,2.10
2022-07-27T21:01:32.081Z,1.50
2022-07-27T21:08:34.398Z,1.48
2022-07-27T21:15:37.990Z,1.50
2022-07-27T21:22:40.929Z,1.48
2022-07-27T21:29:43.445Z,1.50
2022-07-27T21:36:47.106Z,1.60
2022-07-27T21:43:49.522Z,1.60
2022-07-27T21:50:52.358Z,1.50
2022-07-27T21:57:56.135Z,1.60
2022-07-27T22:04:58.373Z,1.58
2022-07-27T22:12:00.781Z,1.48
2022-07-27T22:19:04.660Z,1.88
2022-07-27T22:26:07.018Z,2.25
2022-07-27T22:33:09.406Z,1.98
2022-07-27T22:40:13.150Z,1.90
2022-07-27T22:47:15.410Z,1.80
2022-07-27T22:54:18.921Z,2.22
2022-07-27T23:01:45.524Z,1.75
2022-07-27T23:08:45.293Z,1.70
2022-07-27T23:15:48.082Z,2.28
2022-07-27T23:22:53.979Z,2.20
2022-07-27T23:29:56.708Z,1.75
2022-07-27T23:36:58.953Z,1.65
2022-07-27T23:44:02.518Z,1.70
2022-07-27T23:51:08.430Z,2.05
2022-07-27T23:58:13.196Z,1.77
